sensor_id;sensor_type;location;lat;lon;timestamp;pressure;altitude;pressure_sealevel;temperature;humidity
60832;BME280;46665;51.558;-0.448;2022-11-15T00:01:54;99899.84;;;8.28;100.00
60832;BME280;46665;51.558;-0.448;2022-11-15T00:04:38;99892.28;;;8.20;100.00
60832;BME280;46665;51.558;-0.448;2022-11-15T00:07:22;99887.94;;;8.24;100.00
60832;BME280;46665;51.558;-0.448;2022-11-15T00:10:06;99881.72;;;8.23;100.00
60832;BME280;46665;51.558;-0.448;2022-11-15T00:12:50;99888.78;;;8.19;100.00
60832;BME280;46665;51.558;-0.448;2022-11-15T00:15:35;99891.50;;;8.19;100.00
60832;BME280;46665;51.558;-0.448;2022-11-15T00:18:20;99878.25;;;8.18;100.00
60832;BME280;46665;51.558;-0.448;2022-11-15T00:21:07;99875.53;;;8.18;100.00
60832;BME280;46665;51.558;-0.448;2022-11-15T00:23:51;99871.50;;;8.15;100.00
60832;BME280;46665;51.558;-0.448;2022-11-15T00:26:35;99873.91;;;8.17;100.00
60832;BME280;46665;51.558;-0.448;2022-11-15T00:29:19;99870.97;;;8.13;100.00
60832;BME280;46665;51.558;-0.448;2022-11-15T00:32:04;99857.16;;;8.10;100.00
60832;BME280;46665;51.558;-0.448;2022-11-15T00:34:48;99861.25;;;8.07;100.00
60832;BME280;46665;51.558;-0.448;2022-11-15T00:37:32;99853.09;;;8.07;100.00
60832;BME280;46665;51.558;-0.448;2022-11-15T00:40:16;99852.56;;;8.05;100.00
60832;BME280;46665;51.558;-0.448;2022-11-15T00:43:00;99849.88;;;8.05;100.00
60832;BME280;46665;51.558;-0.448;2022-11-15T00:45:44;99843.94;;;8.03;100.00
60832;BME280;46665;51.558;-0.448;2022-11-15T00:48:28;99838.81;;;8.01;100.00
60832;BME280;46665;51.558;-0.448;2022-11-15T00:51:12;99822.53;;;8.01;100.00
60832;BME280;46665;51.558;-0.448;2022-11-15T00:53:56;99817.94;;;8.02;100.00
60832;BME280;46665;51.558;-0.448;2022-11-15T00:56:40;99817.41;;;8.00;100.00
60832;BME280;46665;51.558;-0.448;2022-11-15T00:59:24;99811.19;;;7.99;100.00
60832;BME280;46665;51.558;-0.448;2022-11-15T01:02:08;99803.84;;;8.00;100.00
60832;BME280;46665;51.558;-0.448;2022-11-15T01:04:52;99802.25;;;7.99;100.00
60832;BME280;46665;51.558;-0.448;2022-11-15T01:07:36;99788.16;;;7.97;100.00
60832;BME280;46665;51.558;-0.448;2022-11-15T01:10:20;99788.16;;;7.97;100.00
60832;BME280;46665;51.558;-0.448;2022-11-15T01:13:04;99779.50;;;7.95;100.00
60832;BME280;46665;51.558;-0.448;2022-11-15T01:15:48;99778.47;;;7.91;100.00
60832;BME280;46665;51.558;-0.448;2022-11-15T01:18:32;99780.66;;;7.89;100.00
60832;BME280;46665;51.558;-0.448;2022-11-15T01:21:18;99761.75;;;7.84;100.00
60832;BME280;46665;51.558;-0.448;2022-11-15T01:24:02;99756.59;;;7.82;100.00
60832;BME280;46665;51.558;-0.448;2022-11-15T01:26:46;99752.28;;;7.81;100.00
60832;BME280;46665;51.558;-0.448;2022-11-15T01:29:30;99752.06;;;7.77;100.00
60832;BME280;46665;51.558;-0.448;2022-11-15T01:32:14;99737.19;;;7.75;100.00
60832;BME280;46665;51.558;-0.448;2022-11-15T01:34:58;99733.09;;;7.77;100.00
60832;BME280;46665;51.558;-0.448;2022-11-15T01:37:42;99730.66;;;7.76;100.00
60832;BME280;46665;51.558;-0.448;2022-11-15T01:40:26;99728.22;;;7.74;100.00
60832;BME280;46665;51.558;-0.448;2022-11-15T01:43:27;99722.63;;;7.66;100.00
60832;BME280;46665;51.558;-0.448;2022-11-15T01:49:13;99715.03;;;7.68;100.00
60832;BME280;46665;51.558;-0.448;2022-11-15T01:51:58;99713.09;;;7.73;100.00
60832;BME280;46665;51.558;-0.448;2022-11-15T01:54:44;99706.81;;;7.78;100.00
60832;BME280;46665;51.558;-0.448;2022-11-15T01:57:29;99708.63;;;7.88;100.00
60832;BME280;46665;51.558;-0.448;2022-11-15T02:00:14;99698.56;;;7.93;100.00
60832;BME280;46665;51.558;-0.448;2022-11-15T02:02:58;99699.53;;;8.02;100.00
60832;BME280;46665;51.558;-0.448;2022-11-15T02:05:43;99691.91;;;8.04;100.00
60832;BME280;46665;51.558;-0.448;2022-11-15T02:08:27;99692.38;;;8.12;100.00
60832;BME280;46665;51.558;-0.448;2022-11-15T02:11:11;99678.56;;;8.13;100.00
60832;BME280;46665;51.558;-0.448;2022-11-15T02:13:56;99669.31;;;8.14;100.00
60832;BME280;46665;51.558;-0.448;2022-11-15T02:16:58;99662.53;;;8.17;100.00
60832;BME280;46665;51.558;-0.448;2022-11-15T02:19:52;99653.59;;;8.16;100.00
60832;BME280;46665;51.558;-0.448;2022-11-15T02:29:12;99650.41;;;8.09;100.00
60832;BME280;46665;51.558;-0.448;2022-11-15T02:32:18;99628.81;;;8.04;100.00
60832;BME280;46665;51.558;-0.448;2022-11-15T02:38:22;99623.91;;;8.06;100.00
60832;BME280;46665;51.558;-0.448;2022-11-15T02:41:10;99617.69;;;8.06;100.00
60832;BME280;46665;51.558;-0.448;2022-11-15T02:44:40;99610.63;;;8.04;100.00
60832;BME280;46665;51.558;-0.448;2022-11-15T02:47:17;99601.91;;;8.08;100.00
60832;BME280;46665;51.558;-0.448;2022-11-15T02:50:09;99598.13;;;8.09;100.00
60832;BME280;46665;51.558;-0.448;2022-11-15T02:52:54;99598.94;;;8.09;100.00
60832;BME280;46665;51.558;-0.448;2022-11-15T02:55:45;99592.66;;;8.14;100.00
60832;BME280;46665;51.558;-0.448;2022-11-15T03:04:51;99578.38;;;8.27;100.00
60832;BME280;46665;51.558;-0.448;2022-11-15T03:17:02;99544.19;;;8.31;100.00
60832;BME280;46665;51.558;-0.448;2022-11-15T03:19:52;99547.41;;;8.33;100.00
60832;BME280;46665;51.558;-0.448;2022-11-15T03:22:40;99548.44;;;8.37;100.00
60832;BME280;46665;51.558;-0.448;2022-11-15T03:25:28;99541.63;;;8.40;100.00
60832;BME280;46665;51.558;-0.448;2022-11-15T03:28:18;99530.19;;;8.43;100.00
60832;BME280;46665;51.558;-0.448;2022-11-15T03:31:05;99530.72;;;8.45;100.00
60832;BME280;46665;51.558;-0.448;2022-11-15T03:35:00;99526.63;;;8.48;100.00
60832;BME280;46665;51.558;-0.448;2022-11-15T03:37:17;99527.72;;;8.46;100.00
60832;BME280;46665;51.558;-0.448;2022-11-15T03:40:05;99512.84;;;8.44;100.00
60832;BME280;46665;51.558;-0.448;2022-11-15T03:46:07;99515.50;;;8.49;100.00
60832;BME280;46665;51.558;-0.448;2022-11-15T03:49:23;99506.25;;;8.50;100.00
60832;BME280;46665;51.558;-0.448;2022-11-15T03:52:05;99501.34;;;8.52;100.00
60832;BME280;46665;51.558;-0.448;2022-11-15T03:54:55;99493.41;;;8.56;100.00
60832;BME280;46665;51.558;-0.448;2022-11-15T03:57:39;99485.28;;;8.56;100.00
60832;BME280;46665;51.558;-0.448;2022-11-15T04:00:23;99483.06;;;8.58;100.00
60832;BME280;46665;51.558;-0.448;2022-11-15T04:03:07;99489.81;;;8.60;100.00
60832;BME280;46665;51.558;-0.448;2022-11-15T04:05:51;99485.63;;;8.68;100.00
60832;BME280;46665;51.558;-0.448;2022-11-15T04:08:35;99476.09;;;8.71;100.00
60832;BME280;46665;51.558;-0.448;2022-11-15T04:11:19;99475.50;;;8.74;100.00
60832;BME280;46665;51.558;-0.448;2022-11-15T04:14:03;99472.19;;;8.77;100.00
60832;BME280;46665;51.558;-0.448;2022-11-15T04:16:47;99465.88;;;8.81;100.00
60832;BME280;46665;51.558;-0.448;2022-11-15T04:19:31;99456.63;;;8.82;100.00
60832;BME280;46665;51.558;-0.448;2022-11-15T04:22:34;99461.69;;;8.89;100.00
60832;BME280;46665;51.558;-0.448;2022-11-15T04:25:37;99443.19;;;8.91;100.00
60832;BME280;46665;51.558;-0.448;2022-11-15T04:28:22;99434.94;;;8.96;100.00
60832;BME280;46665;51.558;-0.448;2022-11-15T04:31:07;99429.22;;;8.98;100.00
60832;BME280;46665;51.558;-0.448;2022-11-15T04:33:51;99420.47;;;9.01;100.00
60832;BME280;46665;51.558;-0.448;2022-11-15T04:36:35;99420.38;;;9.06;100.00
60832;BME280;46665;51.558;-0.448;2022-11-15T04:39:42;99413.06;;;9.06;100.00
60832;BME280;46665;51.558;-0.448;2022-11-15T04:42:30;99408.63;;;9.10;100.00
60832;BME280;46665;51.558;-0.448;2022-11-15T04:45:14;99404.22;;;9.15;100.00
60832;BME280;46665;51.558;-0.448;2022-11-15T04:47:58;99392.75;;;9.18;100.00
60832;BME280;46665;51.558;-0.448;2022-11-15T04:50:42;99396.97;;;9.24;100.00
60832;BME280;46665;51.558;-0.448;2022-11-15T04:53:26;99399.38;;;9.25;100.00
60832;BME280;46665;51.558;-0.448;2022-11-15T04:56:11;99386.50;;;9.31;100.00
60832;BME280;46665;51.558;-0.448;2022-11-15T04:58:55;99371.53;;;9.33;100.00
60832;BME280;46665;51.558;-0.448;2022-11-15T05:01:39;99364.38;;;9.38;100.00
60832;BME280;46665;51.558;-0.448;2022-11-15T05:04:23;99360.25;;;9.40;100.00
60832;BME280;46665;51.558;-0.448;2022-11-15T05:07:07;99358.06;;;9.42;100.00
60832;BME280;46665;51.558;-0.448;2022-11-15T05:09:51;99353.31;;;9.48;100.00
60832;BME280;46665;51.558;-0.448;2022-11-15T05:12:35;99351.09;;;9.50;100.00
60832;BME280;46665;51.558;-0.448;2022-11-15T05:15:20;99340.72;;;9.52;100.00
60832;BME280;46665;51.558;-0.448;2022-11-15T05:18:03;99343.53;;;9.61;100.00
60832;BME280;46665;51.558;-0.448;2022-11-15T05:20:47;99337.47;;;9.64;100.00
60832;BME280;46665;51.558;-0.448;2022-11-15T05:23:31;99335.13;;;9.71;100.00
60832;BME280;46665;51.558;-0.448;2022-11-15T05:26:17;99330.22;;;9.73;100.00
60832;BME280;46665;51.558;-0.448;2022-11-15T05:29:01;99317.13;;;9.75;100.00
60832;BME280;46665;51.558;-0.448;2022-11-15T05:31:46;99313.59;;;9.74;100.00
60832;BME280;46665;51.558;-0.448;2022-11-15T05:34:30;99315.13;;;9.89;100.00
60832;BME280;46665;51.558;-0.448;2022-11-15T05:37:15;99307.22;;;10.02;100.00
60832;BME280;46665;51.558;-0.448;2022-11-15T05:39:59;99295.88;;;9.99;100.00
60832;BME280;46665;51.558;-0.448;2022-11-15T05:42:44;99300.69;;;10.03;100.00
60832;BME280;46665;51.558;-0.448;2022-11-15T05:45:29;99280.06;;;10.02;100.00
60832;BME280;46665;51.558;-0.448;2022-11-15T05:48:14;99292.72;;;10.06;100.00
60832;BME280;46665;51.558;-0.448;2022-11-15T05:50:58;99265.19;;;9.99;100.00
60832;BME280;46665;51.558;-0.448;2022-11-15T05:53:44;99271.91;;;10.02;100.00
60832;BME280;46665;51.558;-0.448;2022-11-15T05:56:29;99269.97;;;10.02;100.00
60832;BME280;46665;51.558;-0.448;2022-11-15T05:59:14;99271.91;;;10.02;100.00
60832;BME280;46665;51.558;-0.448;2022-11-15T06:01:58;99272.41;;;10.04;100.00
60832;BME280;46665;51.558;-0.448;2022-11-15T06:04:42;99267.50;;;10.14;100.00
60832;BME280;46665;51.558;-0.448;2022-11-15T06:07:26;99264.47;;;10.16;100.00
60832;BME280;46665;51.558;-0.448;2022-11-15T06:10:10;99255.19;;;10.17;100.00
60832;BME280;46665;51.558;-0.448;2022-11-15T06:12:59;99259.69;;;10.22;100.00
60832;BME280;46665;51.558;-0.448;2022-11-15T06:15:43;99251.81;;;10.34;100.00
60832;BME280;46665;51.558;-0.448;2022-11-15T06:18:27;99246.25;;;10.48;100.00
60832;BME280;46665;51.558;-0.448;2022-11-15T06:21:11;99247.06;;;10.48;100.00
60832;BME280;46665;51.558;-0.448;2022-11-15T06:23:55;99244.34;;;10.48;100.00
60832;BME280;46665;51.558;-0.448;2022-11-15T06:26:39;99238.56;;;10.50;100.00
60832;BME280;46665;51.558;-0.448;2022-11-15T06:29:23;99236.06;;;10.53;100.00
60832;BME280;46665;51.558;-0.448;2022-11-15T06:32:07;99243.72;;;10.51;100.00
60832;BME280;46665;51.558;-0.448;2022-11-15T06:34:51;99235.38;;;10.48;100.00
60832;BME280;46665;51.558;-0.448;2022-11-15T06:37:36;99234.91;;;10.54;100.00
60832;BME280;46665;51.558;-0.448;2022-11-15T06:40:20;99226.75;;;10.54;100.00
60832;BME280;46665;51.558;-0.448;2022-11-15T06:43:05;99232.84;;;10.51;100.00
60832;BME280;46665;51.558;-0.448;2022-11-15T06:45:49;99227.53;;;10.46;100.00
60832;BME280;46665;51.558;-0.448;2022-11-15T06:48:34;99211.19;;;10.37;100.00
60832;BME280;46665;51.558;-0.448;2022-11-15T06:51:18;99212.13;;;10.33;100.00
60832;BME280;46665;51.558;-0.448;2022-11-15T06:54:03;99204.41;;;10.26;100.00
60832;BME280;46665;51.558;-0.448;2022-11-15T06:56:47;99200.88;;;10.26;100.00
60832;BME280;46665;51.558;-0.448;2022-11-15T06:59:31;99195.59;;;10.20;100.00
60832;BME280;46665;51.558;-0.448;2022-11-15T07:02:15;99189.00;;;10.13;100.00
60832;BME280;46665;51.558;-0.448;2022-11-15T07:05:00;99187.09;;;10.13;100.00
60832;BME280;46665;51.558;-0.448;2022-11-15T07:07:50;99175.22;;;10.09;100.00
60832;BME280;46665;51.558;-0.448;2022-11-15T07:10:35;99177.94;;;10.09;100.00
60832;BME280;46665;51.558;-0.448;2022-11-15T07:13:19;99181.91;;;10.03;100.00
60832;BME280;46665;51.558;-0.448;2022-11-15T07:16:08;99171.34;;;10.02;100.00
60832;BME280;46665;51.558;-0.448;2022-11-15T07:18:53;99153.59;;;9.95;100.00
60832;BME280;46665;51.558;-0.448;2022-11-15T07:21:37;99168.47;;;9.98;100.00
60832;BME280;46665;51.558;-0.448;2022-11-15T07:24:21;99151.47;;;9.92;100.00
60832;BME280;46665;51.558;-0.448;2022-11-15T07:27:04;99156.75;;;9.89;100.00
60832;BME280;46665;51.558;-0.448;2022-11-15T07:29:48;99160.59;;;9.88;100.00
60832;BME280;46665;51.558;-0.448;2022-11-15T07:32:34;99157.53;;;9.89;100.00
60832;BME280;46665;51.558;-0.448;2022-11-15T07:35:18;99155.16;;;9.88;100.00
60832;BME280;46665;51.558;-0.448;2022-11-15T07:38:02;99152.25;;;9.84;100.00
60832;BME280;46665;51.558;-0.448;2022-11-15T07:40:47;99142.19;;;9.85;100.00
60832;BME280;46665;51.558;-0.448;2022-11-15T07:43:38;99141.09;;;9.86;100.00
60832;BME280;46665;51.558;-0.448;2022-11-15T07:46:22;99145.72;;;9.85;100.00
60832;BME280;46665;51.558;-0.448;2022-11-15T07:49:07;99132.94;;;9.86;100.00
60832;BME280;46665;51.558;-0.448;2022-11-15T07:51:51;99127.50;;;9.86;100.00
60832;BME280;46665;51.558;-0.448;2022-11-15T07:54:35;99125.41;;;9.83;100.00
60832;BME280;46665;51.558;-0.448;2022-11-15T07:57:19;99124.78;;;9.86;100.00
60832;BME280;46665;51.558;-0.448;2022-11-15T08:00:04;99121.44;;;9.89;100.00
60832;BME280;46665;51.558;-0.448;2022-11-15T08:02:49;99109.28;;;9.86;100.00
60832;BME280;46665;51.558;-0.448;2022-11-15T08:05:33;99120.31;;;9.90;100.00
60832;BME280;46665;51.558;-0.448;2022-11-15T08:08:18;99109.44;;;9.90;100.00
60832;BME280;46665;51.558;-0.448;2022-11-15T08:11:02;99104.19;;;9.93;100.00
60832;BME280;46665;51.558;-0.448;2022-11-15T08:13:47;99097.97;;;9.93;100.00
60832;BME280;46665;51.558;-0.448;2022-11-15T08:16:30;99103.41;;;9.93;100.00
60832;BME280;46665;51.558;-0.448;2022-11-15T08:19:15;99106.56;;;9.95;100.00
60832;BME280;46665;51.558;-0.448;2022-11-15T08:21:59;99085.16;;;9.93;100.00
60832;BME280;46665;51.558;-0.448;2022-11-15T08:24:44;99093.00;;;9.95;100.00
60832;BME280;46665;51.558;-0.448;2022-11-15T08:27:28;99098.47;;;10.04;100.00
60832;BME280;46665;51.558;-0.448;2022-11-15T08:30:12;99097.03;;;10.06;100.00
60832;BME280;46665;51.558;-0.448;2022-11-15T08:32:57;99100.88;;;10.05;100.00
60832;BME280;46665;51.558;-0.448;2022-11-15T08:35:43;99099.75;;;10.06;100.00
60832;BME280;46665;51.558;-0.448;2022-11-15T08:38:28;99091.75;;;10.10;100.00
60832;BME280;46665;51.558;-0.448;2022-11-15T08:41:23;99092.41;;;10.07;100.00
60832;BME280;46665;51.558;-0.448;2022-11-15T08:44:08;99080.09;;;10.09;100.00
60832;BME280;46665;51.558;-0.448;2022-11-15T08:46:52;99071.94;;;10.09;100.00
60832;BME280;46665;51.558;-0.448;2022-11-15T08:49:36;99075.63;;;10.13;100.00
60832;BME280;46665;51.558;-0.448;2022-11-15T08:52:20;99061.25;;;10.13;100.00
60832;BME280;46665;51.558;-0.448;2022-11-15T08:55:04;99058.38;;;10.18;100.00
60832;BME280;46665;51.558;-0.448;2022-11-15T08:57:49;99057.25;;;10.19;100.00
60832;BME280;46665;51.558;-0.448;2022-11-15T09:00:33;99052.81;;;10.23;100.00
60832;BME280;46665;51.558;-0.448;2022-11-15T09:03:17;99048.66;;;10.26;100.00
60832;BME280;46665;51.558;-0.448;2022-11-15T09:06:01;99048.84;;;10.29;100.00
60832;BME280;46665;51.558;-0.448;2022-11-15T09:08:45;99043.09;;;10.31;100.00
60832;BME280;46665;51.558;-0.448;2022-11-15T09:11:29;99027.38;;;10.28;100.00
60832;BME280;46665;51.558;-0.448;2022-11-15T09:14:14;99028.50;;;10.27;100.00
60832;BME280;46665;51.558;-0.448;2022-11-15T09:16:58;99021.66;;;10.29;100.00
60832;BME280;46665;51.558;-0.448;2022-11-15T09:19:43;99015.91;;;10.31;100.00
60832;BME280;46665;51.558;-0.448;2022-11-15T09:22:27;99010.91;;;10.33;100.00
60832;BME280;46665;51.558;-0.448;2022-11-15T09:25:12;99006.63;;;10.32;100.00
60832;BME280;46665;51.558;-0.448;2022-11-15T09:27:56;98997.81;;;10.35;100.00
60832;BME280;46665;51.558;-0.448;2022-11-15T09:30:40;98995.88;;;10.35;100.00
60832;BME280;46665;51.558;-0.448;2022-11-15T09:33:24;98989.34;;;10.36;100.00
60832;BME280;46665;51.558;-0.448;2022-11-15T09:36:09;98990.13;;;10.37;100.00
60832;BME280;46665;51.558;-0.448;2022-11-15T09:38:54;98981.34;;;10.40;100.00
60832;BME280;46665;51.558;-0.448;2022-11-15T09:48:16;98961.34;;;10.45;100.00
60832;BME280;46665;51.558;-0.448;2022-11-15T09:51:11;98963.75;;;10.46;100.00
60832;BME280;46665;51.558;-0.448;2022-11-15T09:56:52;98948.38;;;10.50;100.00
60832;BME280;46665;51.558;-0.448;2022-11-15T10:00:00;98953.81;;;10.50;100.00
60832;BME280;46665;51.558;-0.448;2022-11-15T10:05:57;98931.44;;;10.53;100.00
60832;BME280;46665;51.558;-0.448;2022-11-15T10:09:01;98930.97;;;10.51;100.00
60832;BME280;46665;51.558;-0.448;2022-11-15T10:11:47;98927.28;;;10.56;100.00
60832;BME280;46665;51.558;-0.448;2022-11-15T10:14:34;98921.97;;;10.59;100.00
60832;BME280;46665;51.558;-0.448;2022-11-15T10:20:24;98913.03;;;10.59;100.00
60832;BME280;46665;51.558;-0.448;2022-11-15T10:23:12;98917.69;;;10.58;100.00
60832;BME280;46665;51.558;-0.448;2022-11-15T10:25:59;98895.91;;;10.58;100.00
60832;BME280;46665;51.558;-0.448;2022-11-15T10:28:43;98891.75;;;10.61;100.00
60832;BME280;46665;51.558;-0.448;2022-11-15T10:31:28;98886.75;;;10.63;100.00
60832;BME280;46665;51.558;-0.448;2022-11-15T10:34:15;98876.69;;;10.63;100.00
60832;BME280;46665;51.558;-0.448;2022-11-15T10:37:00;98872.38;;;10.62;100.00
60832;BME280;46665;51.558;-0.448;2022-11-15T10:40:03;98863.56;;;10.66;100.00
60832;BME280;46665;51.558;-0.448;2022-11-15T10:42:48;98857.66;;;10.63;100.00
60832;BME280;46665;51.558;-0.448;2022-11-15T10:45:47;98836.22;;;10.62;100.00
60832;BME280;46665;51.558;-0.448;2022-11-15T10:48:33;98828.06;;;10.62;100.00
60832;BME280;46665;51.558;-0.448;2022-11-15T10:51:23;98837.66;;;10.59;100.00
60832;BME280;46665;51.558;-0.448;2022-11-15T10:54:13;98838.16;;;10.61;100.00
60832;BME280;46665;51.558;-0.448;2022-11-15T10:57:00;98831.56;;;10.62;100.00
60832;BME280;46665;51.558;-0.448;2022-11-15T10:59:51;98823.41;;;10.62;100.00
60832;BME280;46665;51.558;-0.448;2022-11-15T11:02:47;98831.56;;;10.62;100.00
60832;BME280;46665;51.558;-0.448;2022-11-15T11:05:40;98825.47;;;10.66;100.00
60832;BME280;46665;51.558;-0.448;2022-11-15T11:08:24;98815.72;;;10.65;100.00
60832;BME280;46665;51.558;-0.448;2022-11-15T11:11:08;98815.72;;;10.65;100.00
60832;BME280;46665;51.558;-0.448;2022-11-15T11:13:52;98801.34;;;10.64;100.00
60832;BME280;46665;51.558;-0.448;2022-11-15T11:16:43;98803.41;;;10.67;100.00
60832;BME280;46665;51.558;-0.448;2022-11-15T11:25:49;98779.22;;;10.66;100.00
60832;BME280;46665;51.558;-0.448;2022-11-15T11:41:27;98745.13;;;10.68;100.00
60832;BME280;46665;51.558;-0.448;2022-11-15T11:47:37;98734.25;;;10.68;100.00
60832;BME280;46665;51.558;-0.448;2022-11-15T11:50:26;98717.16;;;10.68;100.00
60832;BME280;46665;51.558;-0.448;2022-11-15T11:53:28;98722.59;;;10.68;100.00
60832;BME280;46665;51.558;-0.448;2022-11-15T11:56:22;98707.41;;;10.67;100.00
60832;BME280;46665;51.558;-0.448;2022-11-15T12:02:30;98702.09;;;10.70;100.00
60832;BME280;46665;51.558;-0.448;2022-11-15T12:05:27;98692.81;;;10.71;100.00
60832;BME280;46665;51.558;-0.448;2022-11-15T12:11:20;98672.75;;;10.76;100.00
60832;BME280;46665;51.558;-0.448;2022-11-15T12:14:16;98669.59;;;10.74;100.00
60832;BME280;46665;51.558;-0.448;2022-11-15T12:17:04;98669.59;;;10.74;100.00
60832;BME280;46665;51.558;-0.448;2022-11-15T12:19:48;98675.97;;;10.78;100.00
60832;BME280;46665;51.558;-0.448;2022-11-15T12:26:15;98651.16;;;10.79;100.00
60832;BME280;46665;51.558;-0.448;2022-11-15T12:32:26;98642.63;;;10.81;100.00
60832;BME280;46665;51.558;-0.448;2022-11-15T12:35:43;98644.72;;;10.84;100.00
60832;BME280;46665;51.558;-0.448;2022-11-15T12:41:33;98631.25;;;10.88;100.00
60832;BME280;46665;51.558;-0.448;2022-11-15T12:47:25;98609.94;;;10.90;100.00
60832;BME280;46665;51.558;-0.448;2022-11-15T12:50:16;98624.81;;;10.92;100.00
60832;BME280;46665;51.558;-0.448;2022-11-15T12:53:26;98615.66;;;10.97;100.00
60832;BME280;46665;51.558;-0.448;2022-11-15T12:59:01;98594.78;;;11.01;100.00
60832;BME280;46665;51.558;-0.448;2022-11-15T13:04:34;98593.13;;;11.09;100.00
60832;BME280;46665;51.558;-0.448;2022-11-15T13:13:11;98596.09;;;11.49;100.00
60832;BME280;46665;51.558;-0.448;2022-11-15T13:16:20;98594.19;;;11.62;100.00
60832;BME280;46665;51.558;-0.448;2022-11-15T13:19:04;98599.41;;;11.67;100.00
60832;BME280;46665;51.558;-0.448;2022-11-15T13:21:49;98603.06;;;11.71;100.00
60832;BME280;46665;51.558;-0.448;2022-11-15T13:24:52;98608.50;;;11.71;100.00
60832;BME280;46665;51.558;-0.448;2022-11-15T13:27:36;98611.91;;;11.68;100.00
60832;BME280;46665;51.558;-0.448;2022-11-15T13:30:23;98613.72;;;11.64;100.00
60832;BME280;46665;51.558;-0.448;2022-11-15T13:33:10;98616.13;;;11.65;100.00
60832;BME280;46665;51.558;-0.448;2022-11-15T13:36:00;98634.38;;;11.65;100.00
60832;BME280;46665;51.558;-0.448;2022-11-15T13:39:03;98618.38;;;11.63;100.00
60832;BME280;46665;51.558;-0.448;2022-11-15T13:41:49;98620.88;;;11.68;100.00
60832;BME280;46665;51.558;-0.448;2022-11-15T13:44:34;98629.63;;;11.74;100.00
60832;BME280;46665;51.558;-0.448;2022-11-15T13:47:19;98636.78;;;11.79;100.00
60832;BME280;46665;51.558;-0.448;2022-11-15T13:50:03;98651.88;;;11.76;100.00
60832;BME280;46665;51.558;-0.448;2022-11-15T13:52:48;98639.13;;;11.56;100.00
60832;BME280;46665;51.558;-0.448;2022-11-15T13:55:32;98635.09;;;11.41;100.00
60832;BME280;46665;51.558;-0.448;2022-11-15T13:58:17;98643.38;;;11.32;100.00
60832;BME280;46665;51.558;-0.448;2022-11-15T14:01:03;98634.53;;;11.35;100.00
60832;BME280;46665;51.558;-0.448;2022-11-15T14:03:55;98625.50;;;11.22;100.00
60832;BME280;46665;51.558;-0.448;2022-11-15T14:06:57;98634.16;;;11.24;100.00
60832;BME280;46665;51.558;-0.448;2022-11-15T14:09:42;98643.63;;;11.18;100.00
60832;BME280;46665;51.558;-0.448;2022-11-15T14:12:35;98642.59;;;11.11;100.00
60832;BME280;46665;51.558;-0.448;2022-11-15T14:15:33;98645.50;;;11.05;100.00
60832;BME280;46665;51.558;-0.448;2022-11-15T14:18:44;98652.28;;;10.99;100.00
60832;BME280;46665;51.558;-0.448;2022-11-15T14:21:29;98640.00;;;10.93;100.00
60832;BME280;46665;51.558;-0.448;2022-11-15T14:24:20;98647.09;;;10.85;100.00
60832;BME280;46665;51.558;-0.448;2022-11-15T14:27:21;98647.97;;;10.77;100.00
60832;BME280;46665;51.558;-0.448;2022-11-15T14:30:07;98651.34;;;10.74;100.00
60832;BME280;46665;51.558;-0.448;2022-11-15T14:32:56;98648.16;;;10.72;100.00
60832;BME280;46665;51.558;-0.448;2022-11-15T14:35:40;98644.50;;;10.68;100.00
60832;BME280;46665;51.558;-0.448;2022-11-15T14:38:25;98644.50;;;10.68;100.00
60832;BME280;46665;51.558;-0.448;2022-11-15T14:41:23;98657.09;;;10.73;100.00
60832;BME280;46665;51.558;-0.448;2022-11-15T14:44:10;98663.09;;;10.66;100.00
60832;BME280;46665;51.558;-0.448;2022-11-15T14:46:54;98663.72;;;10.63;100.00
60832;BME280;46665;51.558;-0.448;2022-11-15T14:49:39;98665.34;;;10.64;100.00
60832;BME280;46665;51.558;-0.448;2022-11-15T14:52:24;98666.81;;;10.53;100.00
60832;BME280;46665;51.558;-0.448;2022-11-15T14:55:33;98662.41;;;10.48;100.00
60832;BME280;46665;51.558;-0.448;2022-11-15T14:58:19;98669.25;;;10.46;100.00
60832;BME280;46665;51.558;-0.448;2022-11-15T15:01:18;98671.38;;;10.40;100.00
60832;BME280;46665;51.558;-0.448;2022-11-15T15:04:03;98675.22;;;10.39;100.00
60832;BME280;46665;51.558;-0.448;2022-11-15T15:06:47;98675.22;;;10.39;100.00
60832;BME280;46665;51.558;-0.448;2022-11-15T15:09:31;98677.75;;;10.44;100.00
60832;BME280;46665;51.558;-0.448;2022-11-15T15:12:20;98678.25;;;10.46;100.00
60832;BME280;46665;51.558;-0.448;2022-11-15T15:15:05;98676.63;;;10.45;100.00
60832;BME280;46665;51.558;-0.448;2022-11-15T15:17:50;98681.75;;;10.47;100.00
60832;BME280;46665;51.558;-0.448;2022-11-15T15:20:37;98678.72;;;10.48;100.00
60832;BME280;46665;51.558;-0.448;2022-11-15T15:23:23;98680.97;;;10.46;100.00
60832;BME280;46665;51.558;-0.448;2022-11-15T15:26:09;98678.72;;;10.48;100.00
60832;BME280;46665;51.558;-0.448;2022-11-15T15:28:53;98689.91;;;10.47;100.00
60832;BME280;46665;51.558;-0.448;2022-11-15T15:31:37;98687.19;;;10.47;100.00
60832;BME280;46665;51.558;-0.448;2022-11-15T15:34:21;98676.81;;;10.40;100.00
60832;BME280;46665;51.558;-0.448;2022-11-15T15:37:31;98687.50;;;10.45;100.00
60832;BME280;46665;51.558;-0.448;2022-11-15T15:40:19;98679.53;;;10.40;100.00
60832;BME280;46665;51.558;-0.448;2022-11-15T15:43:03;98682.25;;;10.40;100.00
60832;BME280;46665;51.558;-0.448;2022-11-15T15:45:47;98692.34;;;10.39;100.00
60832;BME280;46665;51.558;-0.448;2022-11-15T15:48:31;98689.75;;;10.43;100.00
60832;BME280;46665;51.558;-0.448;2022-11-15T15:51:17;98680.66;;;10.39;100.00
60832;BME280;46665;51.558;-0.448;2022-11-15T15:54:01;98671.56;;;10.35;100.00
60832;BME280;46665;51.558;-0.448;2022-11-15T15:56:45;98679.75;;;10.26;100.00
60832;BME280;46665;51.558;-0.448;2022-11-15T15:59:29;98671.44;;;10.23;100.00
60832;BME280;46665;51.558;-0.448;2022-11-15T16:02:13;98688.38;;;10.19;100.00
60832;BME280;46665;51.558;-0.448;2022-11-15T16:04:57;98691.94;;;10.11;100.00
60832;BME280;46665;51.558;-0.448;2022-11-15T16:07:41;98696.72;;;10.14;100.00
60832;BME280;46665;51.558;-0.448;2022-11-15T16:10:32;98693.09;;;10.10;100.00